Decoded Metar for KVIS (VISALIA MUNI in CA, USA) (IATA:VIS) | Meteo·Mobile Aviation Weather
aviador You're here:

KVIS Decoded Metar

VISALIA MUNI in CA, USA
Report Time2018-09-22 10:56:00
UTC Time2018-09-22 11:20:18
Flight Rules vfr VFR
Wind110° at 03 kt
W.Decomp.*RWY 12: 2.7 kt HW 1.2 kt LCW
W.Rank110° ranks 10
Current wind is below 110° avg. (4.2)
Visibility9999 m
Phenomena:N/A
Clouds:N/A
Expected CloudBase > 1,600 ft AGL from Temp-Dew spread
CeilingNone
Temp15°C (ISA +1)
Dew Point11°C (77% RH)
AAT14.2°C
QNH1014 hPa
Density Alt505 ft
Elevation292 ft
Report Wrong Elevation
Raw Report
KVIS 221056Z AUTO 11003KT 10SM CLR 15/11 A2993 RMK AO2 SLP139
T01500111=

Extra information for KVIS:More info

Metar Taf Metar & Taf Last 4 Metars F.Rules Stats Wind Profile Meteogram Temp Stats Airport Information Weather charts Add Link Nearby VenuesMetar ALERT Operation Metar Decoded Social comments

AIRNAV info for KVIS